sensor_id;sensor_type;location;lat;lon;timestamp;P1;durP1;ratioP1;P2;durP2;ratioP2
70420;SDS011;57848;51.938;15.520;2023-07-22T00:01:08;7.07;;;3.28;;
70420;SDS011;57848;51.938;15.520;2023-07-22T00:03:34;6.33;;;3.40;;
70420;SDS011;57848;51.938;15.520;2023-07-22T00:06:03;8.20;;;3.23;;
70420;SDS011;57848;51.938;15.520;2023-07-22T00:08:30;6.20;;;2.72;;
70420;SDS011;57848;51.938;15.520;2023-07-22T00:10:56;6.87;;;2.93;;
70420;SDS011;57848;51.938;15.520;2023-07-22T00:13:21;7.50;;;2.97;;
70420;SDS011;57848;51.938;15.520;2023-07-22T00:15:47;6.60;;;2.72;;
70420;SDS011;57848;51.938;15.520;2023-07-22T00:18:12;6.57;;;3.03;;
70420;SDS011;57848;51.938;15.520;2023-07-22T00:20:37;7.17;;;2.60;;
70420;SDS011;57848;51.938;15.520;2023-07-22T00:23:03;8.43;;;2.50;;
70420;SDS011;57848;51.938;15.520;2023-07-22T00:25:28;6.17;;;2.60;;
70420;SDS011;57848;51.938;15.520;2023-07-22T00:27:53;5.85;;;2.50;;
70420;SDS011;57848;51.938;15.520;2023-07-22T00:30:19;6.33;;;3.13;;
70420;SDS011;57848;51.938;15.520;2023-07-22T00:32:44;6.13;;;2.53;;
70420;SDS011;57848;51.938;15.520;2023-07-22T00:35:09;6.57;;;2.73;;
70420;SDS011;57848;51.938;15.520;2023-07-22T00:37:36;6.50;;;2.38;;
70420;SDS011;57848;51.938;15.520;2023-07-22T00:40:02;5.97;;;2.23;;
70420;SDS011;57848;51.938;15.520;2023-07-22T00:42:31;5.97;;;2.67;;
70420;SDS011;57848;51.938;15.520;2023-07-22T00:44:56;8.70;;;2.43;;
70420;SDS011;57848;51.938;15.520;2023-07-22T00:47:22;6.47;;;2.47;;
70420;SDS011;57848;51.938;15.520;2023-07-22T00:49:48;6.57;;;2.70;;
70420;SDS011;57848;51.938;15.520;2023-07-22T00:52:14;8.52;;;2.40;;
70420;SDS011;57848;51.938;15.520;2023-07-22T00:54:41;6.77;;;2.67;;
70420;SDS011;57848;51.938;15.520;2023-07-22T00:57:07;6.30;;;2.25;;
70420;SDS011;57848;51.938;15.520;2023-07-22T00:59:32;8.60;;;2.23;;
70420;SDS011;57848;51.938;15.520;2023-07-22T01:01:58;7.97;;;2.77;;
70420;SDS011;57848;51.938;15.520;2023-07-22T01:04:23;7.50;;;3.00;;
70420;SDS011;57848;51.938;15.520;2023-07-22T01:06:49;5.97;;;2.58;;
70420;SDS011;57848;51.938;15.520;2023-07-22T01:09:18;5.68;;;2.40;;
70420;SDS011;57848;51.938;15.520;2023-07-22T01:11:43;5.93;;;2.47;;
70420;SDS011;57848;51.938;15.520;2023-07-22T01:14:09;5.63;;;2.30;;
70420;SDS011;57848;51.938;15.520;2023-07-22T01:16:34;5.87;;;2.43;;
70420;SDS011;57848;51.938;15.520;2023-07-22T01:19:00;6.10;;;2.20;;
70420;SDS011;57848;51.938;15.520;2023-07-22T01:21:25;6.30;;;2.40;;
70420;SDS011;57848;51.938;15.520;2023-07-22T01:23:52;8.13;;;2.60;;
70420;SDS011;57848;51.938;15.520;2023-07-22T01:26:19;5.43;;;2.20;;
70420;SDS011;57848;51.938;15.520;2023-07-22T01:28:44;6.65;;;2.20;;
70420;SDS011;57848;51.938;15.520;2023-07-22T01:31:10;9.57;;;2.50;;
70420;SDS011;57848;51.938;15.520;2023-07-22T01:33:35;6.25;;;2.05;;
70420;SDS011;57848;51.938;15.520;2023-07-22T01:36:02;5.73;;;2.33;;
70420;SDS011;57848;51.938;15.520;2023-07-22T01:38:28;5.68;;;2.35;;
70420;SDS011;57848;51.938;15.520;2023-07-22T01:40:54;6.50;;;2.78;;
70420;SDS011;57848;51.938;15.520;2023-07-22T01:43:19;6.00;;;2.40;;
70420;SDS011;57848;51.938;15.520;2023-07-22T01:45:45;6.30;;;2.40;;
70420;SDS011;57848;51.938;15.520;2023-07-22T01:48:10;6.35;;;2.60;;
70420;SDS011;57848;51.938;15.520;2023-07-22T01:50:36;6.10;;;2.40;;
70420;SDS011;57848;51.938;15.520;2023-07-22T01:53:01;9.10;;;2.58;;
70420;SDS011;57848;51.938;15.520;2023-07-22T01:55:27;6.63;;;2.80;;
70420;SDS011;57848;51.938;15.520;2023-07-22T01:57:53;6.50;;;3.00;;
70420;SDS011;57848;51.938;15.520;2023-07-22T02:00:19;6.22;;;2.50;;
70420;SDS011;57848;51.938;15.520;2023-07-22T02:02:46;6.47;;;2.70;;
70420;SDS011;57848;51.938;15.520;2023-07-22T02:05:11;6.73;;;2.77;;
70420;SDS011;57848;51.938;15.520;2023-07-22T02:07:37;7.63;;;2.80;;
70420;SDS011;57848;51.938;15.520;2023-07-22T02:10:02;7.00;;;3.00;;
70420;SDS011;57848;51.938;15.520;2023-07-22T02:12:28;6.60;;;2.53;;
70420;SDS011;57848;51.938;15.520;2023-07-22T02:14:53;6.13;;;2.70;;
70420;SDS011;57848;51.938;15.520;2023-07-22T02:17:19;6.93;;;2.77;;
70420;SDS011;57848;51.938;15.520;2023-07-22T02:19:45;6.47;;;2.97;;
70420;SDS011;57848;51.938;15.520;2023-07-22T02:22:10;7.10;;;2.70;;
70420;SDS011;57848;51.938;15.520;2023-07-22T02:24:36;7.47;;;2.95;;
70420;SDS011;57848;51.938;15.520;2023-07-22T02:27:01;7.13;;;2.90;;
70420;SDS011;57848;51.938;15.520;2023-07-22T02:29:27;7.87;;;3.00;;
70420;SDS011;57848;51.938;15.520;2023-07-22T02:31:52;7.17;;;3.20;;
70420;SDS011;57848;51.938;15.520;2023-07-22T02:34:17;7.43;;;3.53;;
70420;SDS011;57848;51.938;15.520;2023-07-22T02:36:43;8.03;;;3.00;;
70420;SDS011;57848;51.938;15.520;2023-07-22T02:39:08;6.65;;;2.95;;
70420;SDS011;57848;51.938;15.520;2023-07-22T02:41:36;7.90;;;3.78;;
70420;SDS011;57848;51.938;15.520;2023-07-22T02:44:02;8.20;;;3.60;;
70420;SDS011;57848;51.938;15.520;2023-07-22T02:46:28;8.13;;;3.38;;
70420;SDS011;57848;51.938;15.520;2023-07-22T02:48:54;8.60;;;4.20;;
70420;SDS011;57848;51.938;15.520;2023-07-22T02:51:20;7.93;;;4.05;;
70420;SDS011;57848;51.938;15.520;2023-07-22T02:53:45;9.00;;;4.30;;
70420;SDS011;57848;51.938;15.520;2023-07-22T02:56:12;8.77;;;4.03;;
70420;SDS011;57848;51.938;15.520;2023-07-22T02:58:37;8.57;;;4.25;;
70420;SDS011;57848;51.938;15.520;2023-07-22T03:01:03;9.00;;;3.90;;
70420;SDS011;57848;51.938;15.520;2023-07-22T03:03:29;8.00;;;4.28;;
70420;SDS011;57848;51.938;15.520;2023-07-22T03:05:58;9.70;;;3.77;;
70420;SDS011;57848;51.938;15.520;2023-07-22T03:08:24;8.93;;;3.25;;
70420;SDS011;57848;51.938;15.520;2023-07-22T03:10:50;8.18;;;3.90;;
70420;SDS011;57848;51.938;15.520;2023-07-22T03:13:15;8.60;;;4.00;;
70420;SDS011;57848;51.938;15.520;2023-07-22T03:15:41;10.05;;;3.67;;
70420;SDS011;57848;51.938;15.520;2023-07-22T03:18:07;7.83;;;3.77;;
70420;SDS011;57848;51.938;15.520;2023-07-22T03:20:32;7.43;;;3.50;;
70420;SDS011;57848;51.938;15.520;2023-07-22T03:22:57;9.20;;;4.00;;
70420;SDS011;57848;51.938;15.520;2023-07-22T03:25:23;8.40;;;4.20;;
70420;SDS011;57848;51.938;15.520;2023-07-22T03:27:48;8.13;;;4.13;;
70420;SDS011;57848;51.938;15.520;2023-07-22T03:30:14;9.37;;;3.80;;
70420;SDS011;57848;51.938;15.520;2023-07-22T03:32:41;8.18;;;3.33;;
70420;SDS011;57848;51.938;15.520;2023-07-22T03:35:08;9.05;;;3.92;;
70420;SDS011;57848;51.938;15.520;2023-07-22T03:37:34;8.73;;;3.80;;
70420;SDS011;57848;51.938;15.520;2023-07-22T03:40:01;8.13;;;3.85;;
70420;SDS011;57848;51.938;15.520;2023-07-22T03:42:31;8.13;;;4.03;;
70420;SDS011;57848;51.938;15.520;2023-07-22T03:44:56;8.07;;;3.97;;
70420;SDS011;57848;51.938;15.520;2023-07-22T03:47:22;9.77;;;4.03;;
70420;SDS011;57848;51.938;15.520;2023-07-22T03:49:47;7.47;;;3.73;;
70420;SDS011;57848;51.938;15.520;2023-07-22T03:52:12;7.90;;;3.65;;
70420;SDS011;57848;51.938;15.520;2023-07-22T03:54:39;7.33;;;4.23;;
70420;SDS011;57848;51.938;15.520;2023-07-22T03:57:05;9.05;;;4.35;;
70420;SDS011;57848;51.938;15.520;2023-07-22T03:59:31;9.05;;;4.25;;
70420;SDS011;57848;51.938;15.520;2023-07-22T04:01:56;9.97;;;4.20;;
70420;SDS011;57848;51.938;15.520;2023-07-22T04:04:22;9.83;;;4.10;;
70420;SDS011;57848;51.938;15.520;2023-07-22T04:06:47;8.53;;;3.70;;
70420;SDS011;57848;51.938;15.520;2023-07-22T04:09:12;8.57;;;4.37;;
70420;SDS011;57848;51.938;15.520;2023-07-22T04:11:38;9.32;;;4.15;;
70420;SDS011;57848;51.938;15.520;2023-07-22T04:14:03;11.90;;;4.33;;
70420;SDS011;57848;51.938;15.520;2023-07-22T04:16:29;7.83;;;3.50;;
70420;SDS011;57848;51.938;15.520;2023-07-22T04:18:54;9.53;;;3.80;;
70420;SDS011;57848;51.938;15.520;2023-07-22T04:21:19;9.13;;;3.95;;
70420;SDS011;57848;51.938;15.520;2023-07-22T04:23:45;9.13;;;4.43;;
70420;SDS011;57848;51.938;15.520;2023-07-22T04:26:10;8.37;;;4.10;;
70420;SDS011;57848;51.938;15.520;2023-07-22T04:28:36;11.03;;;4.70;;
70420;SDS011;57848;51.938;15.520;2023-07-22T04:31:01;10.27;;;4.93;;
70420;SDS011;57848;51.938;15.520;2023-07-22T04:33:27;9.10;;;5.10;;
70420;SDS011;57848;51.938;15.520;2023-07-22T04:35:53;9.77;;;4.78;;
70420;SDS011;57848;51.938;15.520;2023-07-22T04:38:21;8.27;;;4.53;;
70420;SDS011;57848;51.938;15.520;2023-07-22T04:40:46;9.85;;;4.78;;
70420;SDS011;57848;51.938;15.520;2023-07-22T04:43:11;9.33;;;4.50;;
70420;SDS011;57848;51.938;15.520;2023-07-22T04:45:37;9.00;;;4.37;;
70420;SDS011;57848;51.938;15.520;2023-07-22T04:48:05;8.50;;;4.25;;
70420;SDS011;57848;51.938;15.520;2023-07-22T04:50:30;8.00;;;4.27;;
70420;SDS011;57848;51.938;15.520;2023-07-22T04:52:56;8.83;;;5.03;;
70420;SDS011;57848;51.938;15.520;2023-07-22T04:55:21;9.20;;;4.60;;
70420;SDS011;57848;51.938;15.520;2023-07-22T04:57:47;8.85;;;4.22;;
70420;SDS011;57848;51.938;15.520;2023-07-22T05:00:13;10.57;;;4.00;;
70420;SDS011;57848;51.938;15.520;2023-07-22T05:02:41;8.63;;;3.88;;
70420;SDS011;57848;51.938;15.520;2023-07-22T05:05:14;8.98;;;4.35;;
70420;SDS011;57848;51.938;15.520;2023-07-22T05:07:41;10.57;;;4.30;;
70420;SDS011;57848;51.938;15.520;2023-07-22T05:10:07;9.02;;;3.90;;
70420;SDS011;57848;51.938;15.520;2023-07-22T05:12:37;10.03;;;3.77;;
70420;SDS011;57848;51.938;15.520;2023-07-22T05:15:03;9.00;;;3.40;;
70420;SDS011;57848;51.938;15.520;2023-07-22T05:17:28;9.50;;;4.38;;
70420;SDS011;57848;51.938;15.520;2023-07-22T05:19:56;8.10;;;4.18;;
70420;SDS011;57848;51.938;15.520;2023-07-22T05:22:21;7.67;;;3.60;;
70420;SDS011;57848;51.938;15.520;2023-07-22T05:24:47;10.47;;;4.23;;
70420;SDS011;57848;51.938;15.520;2023-07-22T05:27:12;8.63;;;3.47;;
70420;SDS011;57848;51.938;15.520;2023-07-22T05:29:37;9.73;;;4.13;;
70420;SDS011;57848;51.938;15.520;2023-07-22T05:32:03;11.40;;;4.03;;
70420;SDS011;57848;51.938;15.520;2023-07-22T05:34:28;9.65;;;3.80;;
70420;SDS011;57848;51.938;15.520;2023-07-22T05:36:53;6.40;;;3.40;;
70420;SDS011;57848;51.938;15.520;2023-07-22T05:39:19;6.77;;;3.57;;
70420;SDS011;57848;51.938;15.520;2023-07-22T05:41:44;6.73;;;3.30;;
70420;SDS011;57848;51.938;15.520;2023-07-22T05:44:09;7.57;;;3.53;;
70420;SDS011;57848;51.938;15.520;2023-07-22T05:46:35;6.90;;;3.00;;
70420;SDS011;57848;51.938;15.520;2023-07-22T05:49:00;7.73;;;3.30;;
70420;SDS011;57848;51.938;15.520;2023-07-22T05:51:25;8.03;;;2.90;;
70420;SDS011;57848;51.938;15.520;2023-07-22T05:53:51;7.07;;;2.90;;
70420;SDS011;57848;51.938;15.520;2023-07-22T05:56:16;7.13;;;3.30;;
70420;SDS011;57848;51.938;15.520;2023-07-22T05:58:42;6.97;;;3.33;;
70420;SDS011;57848;51.938;15.520;2023-07-22T06:01:07;6.40;;;3.00;;
70420;SDS011;57848;51.938;15.520;2023-07-22T06:03:33;6.33;;;3.03;;
70420;SDS011;57848;51.938;15.520;2023-07-22T06:05:58;9.30;;;3.20;;
70420;SDS011;57848;51.938;15.520;2023-07-22T06:08:23;6.97;;;3.07;;
70420;SDS011;57848;51.938;15.520;2023-07-22T06:10:50;5.80;;;2.60;;
70420;SDS011;57848;51.938;15.520;2023-07-22T06:13:16;7.33;;;3.13;;
70420;SDS011;57848;51.938;15.520;2023-07-22T06:15:41;7.50;;;2.80;;
70420;SDS011;57848;51.938;15.520;2023-07-22T06:18:06;6.37;;;2.70;;
70420;SDS011;57848;51.938;15.520;2023-07-22T06:20:34;7.05;;;3.00;;
70420;SDS011;57848;51.938;15.520;2023-07-22T06:22:59;7.17;;;2.87;;
70420;SDS011;57848;51.938;15.520;2023-07-22T06:25:25;6.55;;;2.47;;
70420;SDS011;57848;51.938;15.520;2023-07-22T06:27:51;6.90;;;2.60;;
70420;SDS011;57848;51.938;15.520;2023-07-22T06:30:19;6.15;;;2.75;;
70420;SDS011;57848;51.938;15.520;2023-07-22T06:32:44;6.03;;;2.50;;
70420;SDS011;57848;51.938;15.520;2023-07-22T06:35:09;6.20;;;2.70;;
70420;SDS011;57848;51.938;15.520;2023-07-22T06:37:35;7.40;;;2.80;;
70420;SDS011;57848;51.938;15.520;2023-07-22T06:40:00;5.93;;;2.40;;
70420;SDS011;57848;51.938;15.520;2023-07-22T06:42:25;6.10;;;2.53;;
70420;SDS011;57848;51.938;15.520;2023-07-22T06:44:52;13.25;;;2.10;;
70420;SDS011;57848;51.938;15.520;2023-07-22T06:47:17;10.07;;;2.70;;
70420;SDS011;57848;51.938;15.520;2023-07-22T06:49:43;6.00;;;2.42;;
70420;SDS011;57848;51.938;15.520;2023-07-22T06:52:08;6.50;;;2.80;;
70420;SDS011;57848;51.938;15.520;2023-07-22T06:54:34;6.13;;;2.33;;
70420;SDS011;57848;51.938;15.520;2023-07-22T06:57:00;6.07;;;2.25;;
70420;SDS011;57848;51.938;15.520;2023-07-22T06:59:26;5.83;;;2.07;;
70420;SDS011;57848;51.938;15.520;2023-07-22T07:01:51;6.23;;;2.00;;
70420;SDS011;57848;51.938;15.520;2023-07-22T07:04:17;7.18;;;2.40;;
70420;SDS011;57848;51.938;15.520;2023-07-22T07:06:42;5.13;;;1.87;;
70420;SDS011;57848;51.938;15.520;2023-07-22T07:09:08;6.07;;;2.10;;
70420;SDS011;57848;51.938;15.520;2023-07-22T07:11:33;5.93;;;2.17;;
70420;SDS011;57848;51.938;15.520;2023-07-22T07:13:58;6.68;;;2.30;;
70420;SDS011;57848;51.938;15.520;2023-07-22T07:16:27;5.63;;;2.03;;
70420;SDS011;57848;51.938;15.520;2023-07-22T07:18:54;7.53;;;2.35;;
70420;SDS011;57848;51.938;15.520;2023-07-22T07:21:20;7.27;;;2.13;;
70420;SDS011;57848;51.938;15.520;2023-07-22T07:23:47;6.85;;;2.33;;
70420;SDS011;57848;51.938;15.520;2023-07-22T07:26:12;6.28;;;2.33;;
70420;SDS011;57848;51.938;15.520;2023-07-22T07:28:38;7.00;;;2.77;;
70420;SDS011;57848;51.938;15.520;2023-07-22T07:31:03;7.40;;;2.20;;
70420;SDS011;57848;51.938;15.520;2023-07-22T07:33:29;6.00;;;2.47;;
70420;SDS011;57848;51.938;15.520;2023-07-22T07:35:54;8.38;;;2.40;;
70420;SDS011;57848;51.938;15.520;2023-07-22T07:38:19;8.67;;;2.10;;
70420;SDS011;57848;51.938;15.520;2023-07-22T07:40:45;7.30;;;2.57;;
70420;SDS011;57848;51.938;15.520;2023-07-22T07:43:10;7.03;;;2.70;;
70420;SDS011;57848;51.938;15.520;2023-07-22T07:45:38;6.17;;;2.20;;
70420;SDS011;57848;51.938;15.520;2023-07-22T07:48:04;6.10;;;2.30;;
70420;SDS011;57848;51.938;15.520;2023-07-22T07:50:30;8.30;;;2.45;;
70420;SDS011;57848;51.938;15.520;2023-07-22T07:52:55;6.23;;;2.23;;
70420;SDS011;57848;51.938;15.520;2023-07-22T07:55:20;8.03;;;2.50;;
70420;SDS011;57848;51.938;15.520;2023-07-22T07:57:46;8.20;;;2.87;;
70420;SDS011;57848;51.938;15.520;2023-07-22T08:00:11;8.03;;;2.70;;
70420;SDS011;57848;51.938;15.520;2023-07-22T08:02:37;6.05;;;2.63;;
70420;SDS011;57848;51.938;15.520;2023-07-22T08:05:02;7.67;;;2.60;;
70420;SDS011;57848;51.938;15.520;2023-07-22T08:07:28;6.73;;;2.80;;
70420;SDS011;57848;51.938;15.520;2023-07-22T08:09:53;6.10;;;2.43;;
70420;SDS011;57848;51.938;15.520;2023-07-22T08:12:18;7.47;;;2.37;;
70420;SDS011;57848;51.938;15.520;2023-07-22T08:14:44;7.00;;;2.70;;
70420;SDS011;57848;51.938;15.520;2023-07-22T08:17:09;7.30;;;2.37;;
70420;SDS011;57848;51.938;15.520;2023-07-22T08:19:35;7.10;;;2.50;;
70420;SDS011;57848;51.938;15.520;2023-07-22T08:22:00;6.93;;;2.57;;
70420;SDS011;57848;51.938;15.520;2023-07-22T08:24:26;7.60;;;3.00;;
70420;SDS011;57848;51.938;15.520;2023-07-22T08:26:52;8.93;;;3.50;;
70420;SDS011;57848;51.938;15.520;2023-07-22T08:29:17;7.88;;;3.25;;
70420;SDS011;57848;51.938;15.520;2023-07-22T08:31:42;7.40;;;2.90;;
70420;SDS011;57848;51.938;15.520;2023-07-22T08:34:08;6.23;;;2.43;;
70420;SDS011;57848;51.938;15.520;2023-07-22T08:36:33;7.63;;;2.70;;
70420;SDS011;57848;51.938;15.520;2023-07-22T08:38:58;8.53;;;2.80;;
70420;SDS011;57848;51.938;15.520;2023-07-22T08:41:24;6.27;;;2.23;;
70420;SDS011;57848;51.938;15.520;2023-07-22T08:43:50;8.57;;;3.30;;
70420;SDS011;57848;51.938;15.520;2023-07-22T08:46:17;6.13;;;2.60;;
70420;SDS011;57848;51.938;15.520;2023-07-22T08:48:46;8.07;;;2.75;;
70420;SDS011;57848;51.938;15.520;2023-07-22T08:51:15;6.55;;;2.70;;
70420;SDS011;57848;51.938;15.520;2023-07-22T08:53:43;10.67;;;3.20;;
70420;SDS011;57848;51.938;15.520;2023-07-22T08:56:09;9.32;;;3.00;;
70420;SDS011;57848;51.938;15.520;2023-07-22T08:58:35;6.72;;;2.30;;
70420;SDS011;57848;51.938;15.520;2023-07-22T09:01:01;7.03;;;2.70;;
70420;SDS011;57848;51.938;15.520;2023-07-22T09:03:27;6.60;;;2.47;;
70420;SDS011;57848;51.938;15.520;2023-07-22T09:05:53;6.55;;;2.78;;
70420;SDS011;57848;51.938;15.520;2023-07-22T09:08:19;7.03;;;3.03;;
70420;SDS011;57848;51.938;15.520;2023-07-22T09:10:45;8.02;;;2.60;;
70420;SDS011;57848;51.938;15.520;2023-07-22T09:13:11;6.80;;;2.53;;
70420;SDS011;57848;51.938;15.520;2023-07-22T09:15:39;8.88;;;2.67;;
70420;SDS011;57848;51.938;15.520;2023-07-22T09:18:05;7.20;;;2.50;;
70420;SDS011;57848;51.938;15.520;2023-07-22T09:20:31;8.00;;;2.73;;
70420;SDS011;57848;51.938;15.520;2023-07-22T09:22:58;7.10;;;2.70;;
70420;SDS011;57848;51.938;15.520;2023-07-22T09:25:24;7.43;;;3.70;;
70420;SDS011;57848;51.938;15.520;2023-07-22T09:27:55;7.20;;;2.92;;
70420;SDS011;57848;51.938;15.520;2023-07-22T09:31:01;7.40;;;2.67;;
70420;SDS011;57848;51.938;15.520;2023-07-22T09:33:25;7.77;;;2.77;;
70420;SDS011;57848;51.938;15.520;2023-07-22T09:35:52;8.27;;;2.35;;
70420;SDS011;57848;51.938;15.520;2023-07-22T09:38:23;7.30;;;2.85;;
70420;SDS011;57848;51.938;15.520;2023-07-22T09:40:49;8.73;;;2.97;;
70420;SDS011;57848;51.938;15.520;2023-07-22T09:43:15;7.37;;;2.93;;
70420;SDS011;57848;51.938;15.520;2023-07-22T09:45:41;7.22;;;3.40;;
70420;SDS011;57848;51.938;15.520;2023-07-22T09:48:06;6.93;;;2.90;;
70420;SDS011;57848;51.938;15.520;2023-07-22T09:50:34;6.85;;;2.40;;
70420;SDS011;57848;51.938;15.520;2023-07-22T09:53:01;8.80;;;2.53;;
70420;SDS011;57848;51.938;15.520;2023-07-22T09:55:29;6.45;;;2.50;;
70420;SDS011;57848;51.938;15.520;2023-07-22T09:57:59;7.20;;;2.33;;
70420;SDS011;57848;51.938;15.520;2023-07-22T10:00:37;6.97;;;2.70;;
70420;SDS011;57848;51.938;15.520;2023-07-22T10:03:04;6.93;;;2.72;;
70420;SDS011;57848;51.938;15.520;2023-07-22T10:05:35;8.93;;;3.17;;
70420;SDS011;57848;51.938;15.520;2023-07-22T10:08:01;6.95;;;2.70;;
70420;SDS011;57848;51.938;15.520;2023-07-22T10:10:40;10.00;;;2.90;;
70420;SDS011;57848;51.938;15.520;2023-07-22T10:13:08;7.57;;;3.15;;
70420;SDS011;57848;51.938;15.520;2023-07-22T10:15:34;7.18;;;2.78;;
70420;SDS011;57848;51.938;15.520;2023-07-22T10:18:01;6.47;;;2.80;;
70420;SDS011;57848;51.938;15.520;2023-07-22T10:20:27;8.43;;;3.08;;
70420;SDS011;57848;51.938;15.520;2023-07-22T10:22:54;7.05;;;3.10;;
70420;SDS011;57848;51.938;15.520;2023-07-22T10:25:20;9.48;;;3.13;;
70420;SDS011;57848;51.938;15.520;2023-07-22T10:27:47;6.10;;;2.70;;
70420;SDS011;57848;51.938;15.520;2023-07-22T10:30:14;9.30;;;3.23;;
70420;SDS011;57848;51.938;15.520;2023-07-22T10:32:41;8.40;;;3.17;;
70420;SDS011;57848;51.938;15.520;2023-07-22T10:35:12;7.28;;;3.20;;
70420;SDS011;57848;51.938;15.520;2023-07-22T10:37:46;7.35;;;3.00;;
70420;SDS011;57848;51.938;15.520;2023-07-22T10:43:04;7.43;;;3.28;;
70420;SDS011;57848;51.938;15.520;2023-07-22T10:45:32;8.52;;;3.20;;
70420;SDS011;57848;51.938;15.520;2023-07-22T10:48:02;8.20;;;3.13;;
70420;SDS011;57848;51.938;15.520;2023-07-22T10:53:09;7.53;;;2.72;;
70420;SDS011;57848;51.938;15.520;2023-07-22T10:58:29;7.85;;;2.80;;
70420;SDS011;57848;51.938;15.520;2023-07-22T11:01:22;7.77;;;2.27;;
70420;SDS011;57848;51.938;15.520;2023-07-22T11:04:02;5.80;;;2.20;;
70420;SDS011;57848;51.938;15.520;2023-07-22T11:06:31;9.80;;;2.60;;
70420;SDS011;57848;51.938;15.520;2023-07-22T11:08:56;6.55;;;2.88;;
70420;SDS011;57848;51.938;15.520;2023-07-22T11:11:34;7.47;;;2.40;;
70420;SDS011;57848;51.938;15.520;2023-07-22T11:14:18;6.50;;;2.33;;
70420;SDS011;57848;51.938;15.520;2023-07-22T11:16:46;6.77;;;2.40;;
70420;SDS011;57848;51.938;15.520;2023-07-22T11:19:12;6.57;;;2.40;;
70420;SDS011;57848;51.938;15.520;2023-07-22T11:21:39;6.55;;;2.13;;
70420;SDS011;57848;51.938;15.520;2023-07-22T11:24:05;6.77;;;2.37;;
70420;SDS011;57848;51.938;15.520;2023-07-22T11:26:32;6.28;;;2.25;;
70420;SDS011;57848;51.938;15.520;2023-07-22T11:28:59;6.78;;;2.20;;
70420;SDS011;57848;51.938;15.520;2023-07-22T11:33:57;7.35;;;2.60;;
70420;SDS011;57848;51.938;15.520;2023-07-22T11:36:23;6.87;;;2.30;;
70420;SDS011;57848;51.938;15.520;2023-07-22T11:38:48;6.60;;;2.70;;
70420;SDS011;57848;51.938;15.520;2023-07-22T11:41:14;7.57;;;2.50;;
70420;SDS011;57848;51.938;15.520;2023-07-22T11:43:39;6.82;;;2.55;;
70420;SDS011;57848;51.938;15.520;2023-07-22T11:46:05;8.03;;;2.73;;
70420;SDS011;57848;51.938;15.520;2023-07-22T11:48:31;7.43;;;2.30;;
70420;SDS011;57848;51.938;15.520;2023-07-22T11:51:00;7.05;;;2.45;;
70420;SDS011;57848;51.938;15.520;2023-07-22T11:53:26;5.70;;;2.10;;
70420;SDS011;57848;51.938;15.520;2023-07-22T11:55:52;7.45;;;2.60;;
70420;SDS011;57848;51.938;15.520;2023-07-22T11:58:26;9.07;;;3.28;;
70420;SDS011;57848;51.938;15.520;2023-07-22T12:01:03;7.35;;;2.58;;
70420;SDS011;57848;51.938;15.520;2023-07-22T12:03:33;6.93;;;2.38;;
70420;SDS011;57848;51.938;15.520;2023-07-22T12:06:08;7.03;;;2.47;;
70420;SDS011;57848;51.938;15.520;2023-07-22T12:08:34;7.25;;;2.10;;
70420;SDS011;57848;51.938;15.520;2023-07-22T12:11:01;7.05;;;2.60;;
70420;SDS011;57848;51.938;15.520;2023-07-22T12:13:27;6.75;;;2.30;;
70420;SDS011;57848;51.938;15.520;2023-07-22T12:16:02;7.17;;;2.47;;
70420;SDS011;57848;51.938;15.520;2023-07-22T12:18:45;7.32;;;2.60;;
70420;SDS011;57848;51.938;15.520;2023-07-22T12:21:12;6.78;;;2.33;;
70420;SDS011;57848;51.938;15.520;2023-07-22T12:23:38;7.10;;;2.20;;
70420;SDS011;57848;51.938;15.520;2023-07-22T12:26:04;7.30;;;2.37;;
70420;SDS011;57848;51.938;15.520;2023-07-22T12:28:30;5.90;;;2.13;;
70420;SDS011;57848;51.938;15.520;2023-07-22T12:30:56;5.97;;;2.60;;
70420;SDS011;57848;51.938;15.520;2023-07-22T12:33:22;6.82;;;2.60;;
70420;SDS011;57848;51.938;15.520;2023-07-22T12:35:49;6.70;;;2.33;;
70420;SDS011;57848;51.938;15.520;2023-07-22T12:38:15;6.17;;;2.30;;
70420;SDS011;57848;51.938;15.520;2023-07-22T12:40:40;8.10;;;2.45;;
70420;SDS011;57848;51.938;15.520;2023-07-22T12:43:05;5.97;;;2.43;;
70420;SDS011;57848;51.938;15.520;2023-07-22T12:45:31;6.77;;;2.70;;
70420;SDS011;57848;51.938;15.520;2023-07-22T12:47:56;8.47;;;2.70;;
70420;SDS011;57848;51.938;15.520;2023-07-22T12:50:21;6.63;;;2.50;;
70420;SDS011;57848;51.938;15.520;2023-07-22T12:52:47;6.90;;;2.42;;
70420;SDS011;57848;51.938;15.520;2023-07-22T12:55:13;6.53;;;2.60;;
70420;SDS011;57848;51.938;15.520;2023-07-22T12:57:38;7.60;;;2.50;;
70420;SDS011;57848;51.938;15.520;2023-07-22T13:00:03;5.97;;;2.27;;
70420;SDS011;57848;51.938;15.520;2023-07-22T13:02:34;6.27;;;2.10;;
70420;SDS011;57848;51.938;15.520;2023-07-22T13:04:59;7.53;;;2.70;;
70420;SDS011;57848;51.938;15.520;2023-07-22T13:07:25;6.03;;;2.43;;
70420;SDS011;57848;51.938;15.520;2023-07-22T13:09:50;9.23;;;2.30;;
70420;SDS011;57848;51.938;15.520;2023-07-22T13:12:18;6.50;;;2.50;;
70420;SDS011;57848;51.938;15.520;2023-07-22T13:14:46;6.97;;;2.58;;
70420;SDS011;57848;51.938;15.520;2023-07-22T13:17:11;5.83;;;2.10;;
70420;SDS011;57848;51.938;15.520;2023-07-22T13:19:36;6.57;;;2.10;;
70420;SDS011;57848;51.938;15.520;2023-07-22T13:22:01;7.00;;;2.60;;
70420;SDS011;57848;51.938;15.520;2023-07-22T13:24:27;6.33;;;2.50;;
70420;SDS011;57848;51.938;15.520;2023-07-22T13:26:53;6.68;;;2.35;;
70420;SDS011;57848;51.938;15.520;2023-07-22T13:29:18;6.27;;;2.57;;
70420;SDS011;57848;51.938;15.520;2023-07-22T13:31:44;8.70;;;2.33;;
70420;SDS011;57848;51.938;15.520;2023-07-22T13:34:09;7.07;;;2.40;;
70420;SDS011;57848;51.938;15.520;2023-07-22T13:36:35;5.97;;;2.50;;
70420;SDS011;57848;51.938;15.520;2023-07-22T13:39:01;6.38;;;2.83;;
70420;SDS011;57848;51.938;15.520;2023-07-22T13:41:26;7.83;;;2.27;;
70420;SDS011;57848;51.938;15.520;2023-07-22T13:43:51;6.13;;;2.50;;
70420;SDS011;57848;51.938;15.520;2023-07-22T13:46:17;8.80;;;2.60;;
70420;SDS011;57848;51.938;15.520;2023-07-22T13:48:42;7.00;;;2.80;;
70420;SDS011;57848;51.938;15.520;2023-07-22T13:51:07;7.90;;;2.53;;
70420;SDS011;57848;51.938;15.520;2023-07-22T13:53:33;7.88;;;2.70;;
70420;SDS011;57848;51.938;15.520;2023-07-22T13:55:59;6.87;;;2.80;;
70420;SDS011;57848;51.938;15.520;2023-07-22T13:58:24;6.77;;;2.33;;
70420;SDS011;57848;51.938;15.520;2023-07-22T14:00:49;6.70;;;2.87;;
70420;SDS011;57848;51.938;15.520;2023-07-22T14:03:15;7.38;;;2.53;;
70420;SDS011;57848;51.938;15.520;2023-07-22T14:05:40;7.27;;;2.57;;
70420;SDS011;57848;51.938;15.520;2023-07-22T14:08:06;7.80;;;2.90;;
70420;SDS011;57848;51.938;15.520;2023-07-22T14:10:32;7.50;;;2.80;;
70420;SDS011;57848;51.938;15.520;2023-07-22T14:12:57;7.80;;;2.60;;
70420;SDS011;57848;51.938;15.520;2023-07-22T14:15:22;7.10;;;2.87;;
70420;SDS011;57848;51.938;15.520;2023-07-22T14:17:48;7.40;;;3.15;;
70420;SDS011;57848;51.938;15.520;2023-07-22T14:20:13;9.17;;;2.83;;
70420;SDS011;57848;51.938;15.520;2023-07-22T14:22:39;6.57;;;3.00;;
70420;SDS011;57848;51.938;15.520;2023-07-22T14:25:07;6.63;;;2.97;;
70420;SDS011;57848;51.938;15.520;2023-07-22T14:27:33;6.55;;;2.60;;
70420;SDS011;57848;51.938;15.520;2023-07-22T14:29:59;6.22;;;2.67;;
70420;SDS011;57848;51.938;15.520;2023-07-22T14:32:25;7.23;;;2.57;;
70420;SDS011;57848;51.938;15.520;2023-07-22T14:34:50;6.30;;;2.72;;
70420;SDS011;57848;51.938;15.520;2023-07-22T14:37:16;6.97;;;2.60;;
70420;SDS011;57848;51.938;15.520;2023-07-22T14:39:42;6.80;;;2.72;;